Time;durP1;ratioP1;P1;durP2;ratioP2;P2;SDS_P1;SDS_P2;PMS_P1;PMS_P2;Temp;Humidity;BMP_temperature;BMP_pressure;BME280_temperature;BME280_humidity;BME280_pressure;Samples;Min_cycle;Max_cycle;Signal;HPM_P1;HPM_P2
2022/01/28 00:00:50;;;;;;;107.97;3.60;;;;;;;;;;5012265;28;20295;-74
2022/01/28 00:03:17;;;;;;;61.15;2.65;;;6.90;51.40;;;;;;5022837;28;20270;-74
2022/01/28 00:05:43;;;;;;;75.97;3.30;;;;;;;;;;5013112;28;20607;-74
2022/01/28 00:08:09;;;;;;;80.30;3.28;;;7.20;50.20;;;;;;5016206;28;20332;-74
2022/01/28 00:10:38;;;;;;;60.15;2.90;;;;;;;;;;5012698;28;20201;-74
2022/01/28 00:13:19;;;;;;;59.08;2.60;;;;;;;;;;5018878;28;20672;-74
2022/01/28 00:16:10;;;;;;;56.25;2.80;;;7.60;46.90;;;;;;5020024;28;20180;-73
2022/01/28 00:38:02;;;;;;;89.40;3.13;;;;;;;;;;5110089;28;20176;-73
2022/01/28 00:42:55;;;;;;;45.80;2.40;;;;;;;;;;5125988;22;20226;-77
2022/01/28 00:45:21;;;;;;;81.28;3.08;;;;;;;;;;5070668;28;20243;-77
2022/01/28 00:47:47;;;;;;;32.38;1.90;;;7.50;48.10;;;;;;5083955;28;20168;-78
2022/01/28 00:50:14;;;;;;;70.23;2.87;;;7.70;47.00;;;;;;5076334;28;20554;-79
2022/01/28 00:52:39;;;;;;;44.95;2.45;;;7.20;49.60;;;;;;5070076;28;20438;-76
2022/01/28 00:55:06;;;;;;;80.10;3.10;;;;;;;;;;5063043;28;20263;-76
2022/01/28 00:57:32;;;;;;;64.10;2.60;;;;;;;;;;5046857;28;20271;-78
2022/01/28 00:59:58;;;;;;;102.07;3.40;;;7.40;47.80;;;;;;5068879;28;20211;-78
2022/01/28 01:02:24;;;;;;;120.38;3.55;;;;;;;;;;5043825;28;20596;-78
2022/01/28 01:04:50;;;;;;;72.45;2.80;;;7.00;49.10;;;;;;5061050;28;20175;-78
2022/01/28 01:07:16;;;;;;;75.60;2.80;;;;;;;;;;5066085;28;20178;-77
2022/01/28 01:09:41;;;;;;;52.43;2.27;;;6.80;51.20;;;;;;5046367;28;20635;-78
2022/01/28 01:12:07;;;;;;;38.70;2.47;;;7.30;48.90;;;;;;5066594;28;20434;-76
2022/01/28 01:14:34;;;;;;;50.57;2.30;;;;;;;;;;5062573;28;20190;-75
2022/01/28 01:19:39;;;;;;;50.80;2.35;;;;;;;;;;5074475;28;20185;-77
2022/01/28 01:22:08;;;;;;;42.55;2.13;;;;;;;;;;5077007;28;20233;-77
2022/01/28 01:24:37;;;;;;;53.28;2.60;;;;;;;;;;5064845;28;20173;-76
2022/01/28 01:27:03;;;;;;;39.30;2.30;;;;;;;;;;5063795;28;20183;-79
2022/01/28 01:29:30;;;;;;;69.72;2.83;;;;;;;;;;5072778;28;20179;-79
2022/01/28 01:32:04;;;;;;;42.03;2.33;;;7.00;48.50;;;;;;5051830;28;20215;-77
2022/01/28 01:34:30;;;;;;;58.20;2.58;;;6.60;50.40;;;;;;5069478;28;20163;-76
2022/01/28 01:36:56;;;;;;;36.10;1.90;;;6.80;49.70;;;;;;5055009;28;20218;-75
2022/01/28 01:39:26;;;;;;;44.80;2.33;;;;;;;;;;5073617;28;20255;-76
2022/01/28 01:41:59;;;;;;;46.28;2.40;;;7.10;48.70;;;;;;5067355;28;20203;-76
2022/01/28 01:52:25;;;;;;;26.13;2.08;;;7.50;46.80;;;;;;5061860;28;20332;-77
2022/01/28 01:54:52;;;;;;;47.13;2.20;;;;;;;;;;5042388;28;20211;-76
2022/01/28 01:57:18;;;;;;;45.42;2.03;;;;;;;;;;5053672;28;20188;-76
2022/01/28 01:59:44;;;;;;;63.13;2.97;;;;;;;;;;5061643;28;20210;-79
2022/01/28 02:02:11;;;;;;;52.15;2.60;;;6.50;52.20;;;;;;5075778;28;20191;-77
2022/01/28 02:04:38;;;;;;;47.90;2.55;;;6.50;51.90;;;;;;5060899;28;20189;-79
2022/01/28 02:07:04;;;;;;;54.95;2.20;;;;;;;;;;5044762;28;20900;-78
2022/01/28 02:09:30;;;;;;;43.85;2.03;;;;;;;;;;5062485;28;20176;-76
2022/01/28 02:11:56;;;;;;;65.15;2.45;;;;;;;;;;5068031;28;20698;-77
2022/01/28 02:14:22;;;;;;;47.08;2.38;;;;;;;;;;5065295;28;20186;-77
2022/01/28 02:16:48;;;;;;;69.95;2.72;;;;;;;;;;5043919;28;20180;-77
2022/01/28 02:19:14;;;;;;;121.57;4.32;;;6.20;53.60;;;;;;5061378;28;20666;-76
2022/01/28 02:21:46;;;;;;;54.10;2.33;;;;;;;;;;5055090;28;20200;-78
2022/01/28 02:24:15;;;;;;;61.97;2.63;;;;;;;;;;5055130;28;20246;-77
2022/01/28 02:26:41;;;;;;;60.25;2.53;;;;;;;;;;5071925;28;20174;-76
2022/01/28 02:29:14;;;;;;;49.72;2.33;;;;;;;;;;5043959;28;20283;-77
2022/01/28 02:31:41;;;;;;;63.45;2.47;;;6.10;53.90;;;;;;5064505;28;20191;-76
2022/01/28 02:34:10;;;;;;;78.25;2.92;;;;;;;;;;5069253;28;20198;-76
2022/01/28 02:36:36;;;;;;;40.45;2.25;;;5.90;56.80;;;;;;5070548;28;20235;-77
2022/01/28 02:39:03;;;;;;;52.10;2.63;;;6.10;55.80;;;;;;5048943;28;20554;-77
2022/01/28 02:41:34;;;;;;;46.03;2.25;;;;;;;;;;5065779;28;20209;-76
2022/01/28 02:44:17;;;;;;;80.85;3.05;;;;;;;;;;5059076;28;20672;-77
2022/01/28 02:46:55;;;;;;;57.10;2.60;;;;;;;;;;5070441;28;20178;-77
2022/01/28 02:49:21;;;;;;;66.22;2.65;;;5.80;56.80;;;;;;5068188;28;20202;-77
2022/01/28 02:51:47;;;;;;;66.32;2.78;;;6.30;53.60;;;;;;5069879;28;20196;-77
2022/01/28 02:54:15;;;;;;;65.37;2.50;;;6.40;52.10;;;;;;5072560;28;20179;-78
2022/01/28 02:56:49;;;;;;;68.53;2.63;;;6.20;53.10;;;;;;5058213;28;20179;-77
2022/01/28 02:59:14;;;;;;;70.45;2.67;;;5.90;54.20;;;;;;5047645;28;20246;-77
2022/01/28 03:01:40;;;;;;;67.67;2.87;;;6.20;53.90;;;;;;5064866;28;20226;-77
2022/01/28 03:04:08;;;;;;;53.80;2.90;;;;;;;;;;5063948;28;20223;-77
2022/01/28 03:06:34;;;;;;;55.85;2.67;;;;;;;;;;5055236;28;20171;-77
2022/01/28 03:09:14;;;;;;;57.33;2.55;;;;;;;;;;5054728;28;20184;-78
2022/01/28 03:14:17;;;;;;;41.92;2.30;;;6.10;55.00;;;;;;5063542;28;20226;-77
2022/01/28 03:19:51;;;;;;;64.43;2.67;;;6.50;53.40;;;;;;5014212;28;20180;-76
2022/01/28 03:22:17;;;;;;;38.65;1.85;;;6.20;54.20;;;;;;5048500;28;20199;-76
2022/01/28 03:24:47;;;;;;;41.40;2.10;;;5.90;55.80;;;;;;5059591;28;20651;-76
2022/01/28 03:27:21;;;;;;;52.08;2.55;;;6.10;55.80;;;;;;5051863;28;20210;-76
2022/01/28 03:29:47;;;;;;;51.72;2.33;;;;;;;;;;5064561;28;20172;-76
2022/01/28 03:32:13;;;;;;;42.40;2.20;;;;;;;;;;5060546;28;20207;-76
2022/01/28 03:34:39;;;;;;;54.50;2.50;;;;;;;;;;5057805;28;20464;-76
2022/01/28 03:37:07;;;;;;;31.52;1.75;;;;;;;;;;5051603;28;20960;-77
2022/01/28 03:39:33;;;;;;;62.58;3.00;;;;;;;;;;5059871;28;20698;-76
2022/01/28 03:41:59;;;;;;;46.27;2.47;;;;;;;;;;5052504;28;20242;-76
2022/01/28 03:44:25;;;;;;;48.87;2.60;;;;;;;;;;5053568;28;20430;-77
2022/01/28 03:46:51;;;;;;;57.97;2.47;;;;;;;;;;5034782;28;20421;-77
2022/01/28 03:49:17;;;;;;;50.60;2.22;;;;;;;;;;5057469;28;20424;-76
2022/01/28 03:51:42;;;;;;;85.33;3.53;;;5.20;60.80;;;;;;5053590;28;20195;-76
2022/01/28 03:54:08;;;;;;;45.23;2.23;;;5.70;58.00;;;;;;5051501;28;20437;-77
2022/01/28 03:56:34;;;;;;;27.47;1.80;;;;;;;;;;5067024;28;20714;-75
2022/01/28 03:59:00;;;;;;;40.45;2.20;;;6.50;50.80;;;;;;5051354;28;20195;-76
2022/01/28 04:01:31;;;;;;;55.10;2.80;;;;;;;;;;5052422;28;20195;-75
2022/01/28 04:04:37;;;;;;;50.20;2.47;;;;;;;;;;5036144;28;20954;-76
2022/01/28 04:12:15;;;;;;;24.55;2.00;;;6.00;53.70;;;;;;5047392;28;20227;-76
2022/01/28 04:15:36;;;;;;;46.65;2.58;;;;;;;;;;5053296;28;20168;-76
2022/01/28 04:17:30;;;;;;;48.35;2.53;;;6.00;53.90;;;;;;5054885;28;20192;-76
2022/01/28 04:19:56;;;;;;;62.47;2.80;;;;;;;;;;5056265;28;20176;-76
2022/01/28 04:22:22;;;;;;;51.47;2.17;;;;;;;;;;5055081;28;20204;-76
2022/01/28 04:24:49;;;;;;;46.35;2.17;;;6.60;50.90;;;;;;5070841;28;20176;-76
2022/01/28 04:27:14;;;;;;;83.95;3.08;;;6.90;49.10;;;;;;5055309;28;20180;-76
2022/01/28 04:29:41;;;;;;;58.40;2.47;;;;;;;;;;5058060;28;20635;-77
2022/01/28 04:32:07;;;;;;;109.45;3.38;;;;;;;;;;5062860;28;20200;-76
2022/01/28 04:34:33;;;;;;;57.13;2.65;;;5.80;53.90;;;;;;5055255;28;20187;-76
2022/01/28 04:37:11;;;;;;;35.53;1.85;;;6.20;53.30;;;;;;5055431;28;20191;-77
2022/01/28 04:45:06;;;;;;;59.00;2.53;;;6.00;51.30;;;;;;5058959;28;20259;-76
2022/01/28 04:50:27;;;;;;;69.18;2.65;;;6.40;50.00;;;;;;5052942;28;20183;-77
2022/01/28 05:03:57;;;;;;;82.57;3.17;;;;;;;;;;5054032;28;20191;-76
2022/01/28 05:27:54;;;;;;;60.67;2.40;;;6.30;49.50;;;;;;5055700;28;20559;-77
2022/01/28 05:30:20;;;;;;;171.63;4.65;;;;;;;;;;5055734;28;20171;-76
2022/01/28 05:32:46;;;;;;;86.93;3.10;;;6.00;51.50;;;;;;5053007;28;20774;-76
2022/01/28 05:35:12;;;;;;;61.47;2.37;;;;;;;;;;5068682;28;20293;-76
2022/01/28 05:37:38;;;;;;;67.80;2.75;;;;;;;;;;5055577;28;20184;-77
2022/01/28 05:40:04;;;;;;;47.67;2.22;;;;;;;;;;5056672;28;20241;-77
2022/01/28 05:42:30;;;;;;;60.08;2.63;;;;;;;;;;5066760;28;20625;-76
2022/01/28 05:44:56;;;;;;;35.00;2.07;;;;;;;;;;5055187;28;20176;-76
2022/01/28 05:47:24;;;;;;;53.05;2.67;;;;;;;;;;5063159;28;20426;-77
2022/01/28 05:49:50;;;;;;;64.63;2.85;;;6.30;51.80;;;;;;5059755;28;20187;-77
2022/01/28 05:52:16;;;;;;;107.80;3.72;;;;;;;;;;5054042;28;20472;-76
2022/01/28 05:54:42;;;;;;;62.57;2.53;;;;;;;;;;5055411;28;20267;-77
2022/01/28 05:57:08;;;;;;;81.68;3.08;;;;;;;;;;5059906;28;20421;-77
2022/01/28 05:59:34;;;;;;;65.65;2.45;;;;;;;;;;5060985;28;20235;-76
2022/01/28 06:02:00;;;;;;;62.80;2.57;;;5.80;53.70;;;;;;5055283;28;20668;-77
2022/01/28 06:04:26;;;;;;;77.87;3.40;;;6.20;51.90;;;;;;5054636;28;20517;-77
2022/01/28 06:06:51;;;;;;;81.70;3.50;;;6.10;52.30;;;;;;5055246;28;20199;-76
2022/01/28 06:09:17;;;;;;;55.67;2.50;;;6.50;49.80;;;;;;5066044;28;20533;-77
2022/01/28 06:11:46;;;;;;;67.20;2.83;;;;;;;;;;5063811;28;20204;-75
2022/01/28 06:14:12;;;;;;;47.60;2.30;;;;;;;;;;5061026;28;20179;-76
2022/01/28 06:16:37;;;;;;;50.75;3.00;;;;;;;;;;5054417;28;20179;-77
2022/01/28 06:19:03;;;;;;;50.37;2.87;;;;;;;;;;5063932;28;20183;-76
2022/01/28 06:21:29;;;;;;;54.60;2.43;;;;;;;;;;5058397;28;20442;-76
2022/01/28 06:23:56;;;;;;;56.38;2.65;;;;;;;;;;5074129;28;20921;-77
2022/01/28 06:26:22;;;;;;;73.43;2.58;;;6.20;45.70;;;;;;5066199;28;20240;-76
2022/01/28 06:28:48;;;;;;;67.72;2.63;;;;;;;;;;5066585;28;20183;-76
2022/01/28 06:31:14;;;;;;;53.38;2.35;;;;;;;;;;5075020;28;20198;-77
2022/01/28 06:33:40;;;;;;;35.75;2.10;;;;;;;;;;5066126;28;20186;-76
2022/01/28 06:36:06;;;;;;;211.70;6.38;;;;;;;;;;5067966;28;20654;-77
2022/01/28 06:38:33;;;;;;;61.90;2.80;;;;;;;;;;5053964;28;20267;-76
2022/01/28 06:40:59;;;;;;;53.97;2.45;;;6.70;44.80;;;;;;5053550;28;20207;-77
2022/01/28 06:43:25;;;;;;;78.10;3.00;;;6.80;44.70;;;;;;5065548;28;20293;-77
2022/01/28 06:45:50;;;;;;;32.37;1.83;;;6.60;45.10;;;;;;5062341;28;20414;-77
2022/01/28 06:48:17;;;;;;;87.93;3.33;;;;;;;;;;5055020;28;20176;-76
2022/01/28 06:50:44;;;;;;;55.88;2.25;;;6.40;45.90;;;;;;5064035;28;20198;-77
2022/01/28 06:53:10;;;;;;;79.15;3.28;;;;;;;;;;5052285;28;20188;-76
2022/01/28 06:55:36;;;;;;;41.40;2.10;;;;;;;;;;5057427;28;20608;-75
2022/01/28 06:58:04;;;;;;;59.45;3.20;;;6.20;45.70;;;;;;5054698;28;20580;-77
2022/01/28 07:00:37;;;;;;;57.72;3.47;;;;;;;;;;5053633;28;20172;-77
2022/01/28 07:03:04;;;;;;;65.05;3.03;;;6.60;45.40;;;;;;5057079;28;20210;-75
2022/01/28 07:05:30;;;;;;;64.15;3.05;;;;;;;;;;5067650;28;20972;-74
2022/01/28 07:07:55;;;;;;;48.72;2.42;;;6.50;46.00;;;;;;5075241;28;20160;-76
2022/01/28 07:10:21;;;;;;;85.40;3.47;;;6.30;47.90;;;;;;5090750;28;20183;-75
2022/01/28 07:12:47;;;;;;;53.50;2.37;;;6.10;49.30;;;;;;5090532;28;20196;-76
2022/01/28 07:15:13;;;;;;;93.73;3.73;;;;;;;;;;5067859;28;20194;-76
2022/01/28 07:17:39;;;;;;;49.25;2.67;;;;;;;;;;5062281;28;20187;-76
2022/01/28 07:20:06;;;;;;;15.70;1.67;;;5.20;55.30;;;;;;5055067;28;20190;-77
2022/01/28 07:22:31;;;;;;;41.10;2.20;;;4.80;60.00;;;;;;5054250;28;20203;-77
2022/01/28 07:24:57;;;;;;;40.60;2.40;;;;;;;;;;5034771;28;20168;-79
2022/01/28 07:27:23;;;;;;;42.00;2.30;;;;;;;;;;5056414;28;20646;-80
2022/01/28 07:29:52;;;;;;;37.08;2.10;;;;;;;;;;5058639;28;20420;-79
2022/01/28 07:32:18;;;;;;;127.28;4.28;;;;;;;;;;5047357;28;20873;-78
2022/01/28 07:34:45;;;;;;;139.02;4.72;;;;;;;;;;5047352;28;20180;-77
2022/01/28 07:37:11;;;;;;;77.05;3.03;;;5.40;55.20;;;;;;5050674;28;20639;-77
2022/01/28 07:39:37;;;;;;;58.50;2.63;;;;;;;;;;5060264;28;20184;-77
2022/01/28 07:42:03;;;;;;;139.73;5.30;;;;;;;;;;5048753;28;20302;-77
2022/01/28 07:44:29;;;;;;;66.68;3.22;;;;;;;;;;5050721;28;20215;-77
2022/01/28 07:46:55;;;;;;;71.80;2.63;;;;;;;;;;5051432;28;20180;-79
2022/01/28 07:49:21;;;;;;;97.80;3.23;;;;;;;;;;5069182;28;20440;-77
2022/01/28 07:51:48;;;;;;;56.45;2.70;;;5.60;53.90;;;;;;5050951;28;20591;-77
2022/01/28 07:54:14;;;;;;;94.10;3.17;;;;;;;;;;5051243;28;20215;-77
2022/01/28 07:56:40;;;;;;;39.83;2.70;;;;;;;;;;5053871;28;20175;-79
2022/01/28 07:59:06;;;;;;;63.80;3.20;;;;;;;;;;5053391;28;20265;-77
2022/01/28 08:01:32;;;;;;;61.10;2.40;;;;;;;;;;5035847;28;20203;-81
2022/01/28 08:03:58;;;;;;;57.33;2.47;;;;;;;;;;5062940;28;20206;-80
2022/01/28 08:06:26;;;;;;;64.97;3.00;;;;;;;;;;5055580;28;20457;-80
2022/01/28 08:08:52;;;;;;;51.45;2.35;;;6.00;52.50;;;;;;5054869;28;20631;-78
2022/01/28 08:11:18;;;;;;;131.27;3.92;;;;;;;;;;5063071;28;20238;-79
2022/01/28 08:13:44;;;;;;;52.45;2.33;;;;;;;;;;5054150;28;20234;-79
2022/01/28 08:16:10;;;;;;;185.80;5.60;;;;;;;;;;5054885;28;20176;-80
2022/01/28 08:18:36;;;;;;;49.55;2.70;;;;;;;;;;5062489;28;20769;-80
2022/01/28 08:21:03;;;;;;;46.60;2.50;;;;;;;;;;5055084;28;20226;-79
2022/01/28 08:23:29;;;;;;;60.67;2.85;;;5.80;53.70;;;;;;5057523;28;20203;-79
2022/01/28 08:25:55;;;;;;;57.03;2.80;;;;;;;;;;5059399;28;20662;-79
2022/01/28 08:28:21;;;;;;;74.50;3.00;;;6.20;50.30;;;;;;5036173;28;20180;-79
2022/01/28 08:30:47;;;;;;;66.37;2.57;;;;;;;;;;5068829;28;20206;-79
2022/01/28 08:33:13;;;;;;;56.00;2.75;;;;;;;;;;5048592;28;20417;-77
2022/01/28 08:35:40;;;;;;;47.22;2.25;;;;;;;;;;5057806;28;20254;-75
2022/01/28 08:38:15;;;;;;;64.35;2.80;;;;;;;;;;5057328;28;20183;-76
2022/01/28 08:40:41;;;;;;;70.60;3.13;;;;;;;;;;5044593;28;20172;-79
2022/01/28 08:43:07;;;;;;;46.17;2.63;;;;;;;;;;5055447;28;20206;-78
2022/01/28 08:45:34;;;;;;;55.08;2.90;;;;;;;;;;5061813;28;21018;-78
2022/01/28 08:48:00;;;;;;;41.80;1.98;;;;;;;;;;5055597;28;20180;-76
2022/01/28 08:50:26;;;;;;;88.70;3.00;;;;;;;;;;5050427;28;20226;-76
2022/01/28 08:52:52;;;;;;;74.07;2.92;;;;;;;;;;5051302;28;20496;-76
2022/01/28 08:55:18;;;;;;;68.22;2.90;;;;;;;;;;5050737;28;20627;-76
2022/01/28 08:57:44;;;;;;;47.85;2.13;;;;;;;;;;5049925;28;20548;-76
2022/01/28 09:00:17;;;;;;;53.88;2.35;;;6.40;48.50;;;;;;5058936;28;20183;-76
2022/01/28 09:02:42;;;;;;;47.55;3.15;;;6.70;48.20;;;;;;5076533;28;20234;-78
2022/01/28 09:05:08;;;;;;;64.33;3.00;;;6.90;46.30;;;;;;5070283;28;20681;-78
2022/01/28 09:07:34;;;;;;;45.60;2.37;;;6.80;45.50;;;;;;5063450;28;20537;-78
2022/01/28 09:10:06;;;;;;;46.37;2.27;;;;;;;;;;5039749;28;20740;-79
2022/01/28 09:12:39;;;;;;;50.28;2.38;;;;;;;;;;5061602;28;20438;-79
2022/01/28 09:15:06;;;;;;;31.83;2.10;;;;;;;;;;5057482;28;20639;-79
2022/01/28 09:17:32;;;;;;;57.45;3.28;;;;;;;;;;5053913;28;20188;-78
2022/01/28 09:19:58;;;;;;;78.72;3.28;;;;;;;;;;5038004;28;20199;-78
2022/01/28 09:22:24;;;;;;;80.95;3.58;;;;;;;;;;5058113;28;20230;-79
2022/01/28 09:24:51;;;;;;;94.03;3.95;;;;;;;;;;5049876;28;20187;-78
2022/01/28 09:27:18;;;;;;;77.55;4.10;;;7.50;42.30;;;;;;5053656;28;20190;-77
2022/01/28 09:29:43;;;;;;;69.35;3.15;;;7.50;41.50;;;;;;5054489;28;20211;-77
2022/01/28 09:32:09;;;;;;;86.93;3.40;;;;;;;;;;5060994;28;20223;-77
2022/01/28 09:34:35;;;;;;;73.28;3.65;;;7.40;43.10;;;;;;5053693;28;20181;-77
2022/01/28 09:37:01;;;;;;;68.60;3.40;;;;;;;;;;5058556;28;20187;-77
2022/01/28 09:39:29;;;;;;;80.83;3.67;;;;;;;;;;5052840;28;20191;-78
2022/01/28 09:42:01;;;;;;;39.17;2.58;;;;;;;;;;5038752;28;20450;-78
2022/01/28 09:44:29;;;;;;;49.35;2.55;;;;;;;;;;5057860;28;20305;-78
2022/01/28 09:46:55;;;;;;;40.38;2.40;;;;;;;;;;5067168;28;20182;-77
2022/01/28 09:49:21;;;;;;;97.25;4.13;;;6.90;44.10;;;;;;5052513;28;20172;-78
2022/01/28 09:51:47;;;;;;;82.70;3.50;;;;;;;;;;5050673;28;20216;-77
2022/01/28 09:54:13;;;;;;;111.13;4.67;;;;;;;;;;5056280;28;20186;-78
2022/01/28 09:56:39;;;;;;;100.43;3.58;;;;;;;;;;5059524;28;20810;-79
2022/01/28 09:59:05;;;;;;;51.13;2.43;;;;;;;;;;5051309;28;20249;-78
2022/01/28 10:01:31;;;;;;;78.97;3.63;;;;;;;;;;5042188;28;20468;-78
2022/01/28 10:04:04;;;;;;;63.25;2.90;;;;;;;;;;5044571;28;20304;-78
2022/01/28 10:06:31;;;;;;;109.95;3.55;;;;;;;;;;5053197;28;20176;-78
2022/01/28 10:08:57;;;;;;;80.53;3.78;;;;;;;;;;5092685;22;20234;-72
2022/01/28 10:11:22;;;;;;;33.47;2.20;;;7.10;43.00;;;;;;5051621;28;20184;-72
2022/01/28 10:13:54;;;;;;;76.17;3.50;;;;;;;;;;5080665;28;20195;-73
2022/01/28 10:16:24;;;;;;;44.60;2.17;;;;;;;;;;5079222;28;20172;-75
2022/01/28 10:19:05;;;;;;;49.90;2.53;;;8.40;38.30;;;;;;5087684;28;20282;-74
2022/01/28 10:21:33;;;;;;;43.28;2.78;;;8.00;39.50;;;;;;5069721;28;20661;-74
2022/01/28 10:24:03;;;;;;;47.00;2.55;;;;;;;;;;5073718;28;20195;-74
2022/01/28 10:26:29;;;;;;;44.60;2.42;;;;;;;;;;5068432;28;20214;-74
2022/01/28 10:28:55;;;;;;;51.13;2.47;;;7.40;41.50;;;;;;5064381;28;20202;-77
2022/01/28 10:31:21;;;;;;;52.72;2.75;;;7.60;40.50;;;;;;5054663;28;20207;-75
2022/01/28 10:33:47;;;;;;;35.03;2.30;;;;;;;;;;5063102;28;20540;-75
2022/01/28 10:36:24;;;;;;;100.03;4.32;;;;;;;;;;5056062;28;20177;-73
2022/01/28 10:38:57;;;;;;;133.50;4.88;;;8.10;39.30;;;;;;5066888;28;20285;-75
2022/01/28 10:41:25;;;;;;;138.25;5.05;;;;;;;;;;5049717;28;20199;-75
2022/01/28 10:43:52;;;;;;;76.20;3.50;;;;;;;;;;5069188;28;20197;-75
2022/01/28 10:46:27;;;;;;;60.75;2.90;;;;;;;;;;5058315;28;20181;-75
2022/01/28 10:48:54;;;;;;;51.15;2.53;;;;;;;;;;5055111;28;20567;-76
2022/01/28 10:51:21;;;;;;;87.80;3.50;;;;;;;;;;5047104;28;20182;-75
2022/01/28 10:54:26;;;;;;;80.80;3.30;;;;;;;;;;5053643;28;20178;-73
2022/01/28 10:56:56;;;;;;;39.15;2.50;;;;;;;;;;4987179;28;20545;-76
2022/01/28 10:59:26;;;;;;;48.50;2.75;;;;;;;;;;4993545;28;20181;-75
2022/01/28 11:01:52;;;;;;;67.35;2.88;;;;;;;;;;4994417;28;20201;-75
2022/01/28 11:04:19;;;;;;;47.80;2.63;;;;;;;;;;4992627;28;20283;-75
2022/01/28 11:06:45;;;;;;;49.85;2.50;;;;;;;;;;4997507;28;20176;-75
2022/01/28 11:09:14;;;;;;;53.88;3.15;;;;;;;;;;4998046;28;21798;-77
2022/01/28 11:11:41;;;;;;;48.28;2.55;;;;;;;;;;4974830;28;20182;-76
2022/01/28 11:14:07;;;;;;;79.27;3.60;;;;;;;;;;4970654;28;20202;-75
2022/01/28 11:16:33;;;;;;;35.22;2.25;;;;;;;;;;4984247;28;20424;-74
2022/01/28 11:18:59;;;;;;;64.68;2.90;;;;;;;;;;4975974;28;20207;-73
2022/01/28 11:21:35;;;;;;;51.53;2.85;;;;;;;;;;5000597;28;20725;-74
2022/01/28 11:24:21;;;;;;;74.07;3.00;;;7.80;35.50;;;;;;4982454;28;20228;-74
2022/01/28 11:27:06;;;;;;;93.10;3.78;;;;;;;;;;4997081;28;20206;-74
2022/01/28 11:29:32;;;;;;;63.80;3.58;;;;;;;;;;5061250;28;20224;-74
2022/01/28 11:32:08;;;;;;;49.20;2.70;;;;;;;;;;5069947;28;20175;-73
2022/01/28 11:34:35;;;;;;;34.58;2.35;;;;;;;;;;5072152;28;20542;-74
2022/01/28 11:37:04;;;;;;;39.00;3.28;;;;;;;;;;5081274;28;20701;-74
2022/01/28 11:39:35;;;;;;;57.58;2.70;;;;;;;;;;5080061;28;20209;-74
2022/01/28 11:42:08;;;;;;;88.43;3.70;;;;;;;;;;5057722;28;20194;-74
2022/01/28 11:44:59;;;;;;;49.00;2.35;;;8.70;32.60;;;;;;5064185;28;20270;-74
2022/01/28 11:47:37;;;;;;;44.03;2.40;;;7.70;33.80;;;;;;5036241;28;20245;-73
2022/01/28 11:50:09;;;;;;;47.13;2.58;;;;;;;;;;5068887;28;20172;-73
2022/01/28 11:53:05;;;;;;;37.80;2.42;;;;;;;;;;5045639;28;20199;-74
2022/01/28 11:55:31;;;;;;;39.22;2.42;;;;;;;;;;5034947;28;20600;-74
2022/01/28 11:58:00;;;;;;;63.30;3.30;;;9.80;31.10;;;;;;5066853;28;20221;-74
2022/01/28 12:00:50;;;;;;;91.60;4.17;;;10.00;29.90;;;;;;5053735;28;20222;-74
2022/01/28 12:03:17;;;;;;;44.47;2.60;;;;;;;;;;5061042;28;20483;-73
2022/01/28 12:05:49;;;;;;;71.73;3.63;;;;;;;;;;5053846;28;20425;-73
2022/01/28 12:08:16;;;;;;;50.63;3.00;;;;;;;;;;5053790;28;20582;-74
2022/01/28 12:10:45;;;;;;;93.40;3.80;;;;;;;;;;5071842;28;20475;-74
2022/01/28 12:13:14;;;;;;;43.93;2.27;;;;;;;;;;5054563;28;20425;-74
2022/01/28 12:16:04;;;;;;;42.47;2.27;;;;;;;;;;5045576;28;20426;-73
2022/01/28 12:18:46;;;;;;;81.27;3.23;;;;;;;;;;5071095;28;20498;-74
2022/01/28 12:21:16;;;;;;;52.97;3.27;;;8.70;31.60;;;;;;5062016;28;20453;-75
2022/01/28 12:23:44;;;;;;;55.03;2.57;;;;;;;;;;5049966;28;20544;-74
2022/01/28 12:26:11;;;;;;;158.50;5.30;;;;;;;;;;5064418;28;20463;-73
2022/01/28 12:28:37;;;;;;;48.97;2.47;;;8.20;32.30;;;;;;5053308;28;21006;-74
2022/01/28 12:31:16;;;;;;;67.20;3.00;;;8.20;31.20;;;;;;5058674;28;20220;-74
2022/01/28 12:33:44;;;;;;;65.45;2.88;;;;;;;;;;5052118;28;20216;-73
2022/01/28 12:36:14;;;;;;;117.35;4.43;;;;;;;;;;5062944;28;20182;-74
2022/01/28 12:38:43;;;;;;;52.00;2.85;;;;;;;;;;5058247;28;20206;-73
2022/01/28 12:41:17;;;;;;;59.47;2.83;;;7.40;34.10;;;;;;5057138;28;20187;-73
2022/01/28 12:43:43;;;;;;;58.95;2.80;;;8.10;33.20;;;;;;5070865;28;20251;-74
2022/01/28 12:46:14;;;;;;;130.33;4.83;;;9.70;30.20;;;;;;5075195;28;20198;-74
2022/01/28 12:48:54;;;;;;;70.50;3.17;;;10.10;27.90;;;;;;5073975;28;20444;-73
2022/01/28 12:51:24;;;;;;;81.40;3.20;;;;;;;;;;5067219;28;20640;-74
2022/01/28 12:53:54;;;;;;;61.23;3.40;;;;;;;;;;5073440;28;20957;-75
2022/01/28 12:56:30;;;;;;;76.43;3.20;;;;;;;;;;5069567;28;20975;-74
2022/01/28 12:58:56;;;;;;;46.97;2.80;;;9.20;32.10;;;;;;5054768;28;20483;-74
2022/01/28 13:01:22;;;;;;;74.33;3.03;;;9.50;30.00;;;;;;5056751;28;20421;-73
2022/01/28 13:03:56;;;;;;;56.45;2.67;;;;;;;;;;5064453;28;20202;-73
2022/01/28 13:09:10;;;;;;;103.72;4.07;;;7.70;35.50;;;;;;5065931;28;20214;-73
2022/01/28 13:11:43;;;;;;;36.78;2.60;;;;;;;;;;5061852;28;20202;-74
2022/01/28 13:14:10;;;;;;;54.20;2.60;;;;;;;;;;5049967;28;20217;-73
2022/01/28 13:16:37;;;;;;;34.80;2.20;;;;;;;;;;5056238;28;20197;-73
2022/01/28 13:19:05;;;;;;;24.77;2.00;;;8.80;30.10;;;;;;5074895;28;20436;-74
2022/01/28 13:21:33;;;;;;;50.25;2.40;;;8.50;30.40;;;;;;5067370;28;20191;-73
2022/01/28 13:24:14;;;;;;;50.63;2.72;;;;;;;;;;5061878;28;20202;-72
